Terminal Aerodrome Forecast
Issued by NWS

Current Version | Previous Version | Text Only | Print | Product List | Glossary On
Versions: 1 2 3 4 5 6 7 8 9 10 11 12 13 14 15 16 17 18 19 20 21 22 23 24 25
000
FTPA31 PHFO 202331
TAFHTO
TAF
PHTO 202331Z 2100/2124 09008KT 3SM SHRA BR VCTS SCT015CB BKN025
      TEMPO 2100/2104 2SM TSRA BR BKN015CB
     FM210600 23005KT P6SM -SHRA SCT015 BKN025
     FM212100 07008KT P6SM VCSH SCT015 BKN025=

USA.gov is the U.S. government's official web portal to all federal, state and local government web resources and services.